sensor_id;sensor_type;location;lat;lon;timestamp;pressure;altitude;pressure_sealevel;temperature;humidity
6028;BME280;3042;43.194;27.646;2023-08-01T00:00:17;101048.22;;;27.19;100.00
6028;BME280;3042;43.194;27.646;2023-08-01T00:02:44;101001.97;;;26.85;100.00
6028;BME280;3042;43.194;27.646;2023-08-01T00:05:11;100943.53;;;26.42;100.00
6028;BME280;3042;43.194;27.646;2023-08-01T00:07:38;101057.28;;;27.07;100.00
6028;BME280;3042;43.194;27.646;2023-08-01T00:10:05;101045.84;;;27.03;100.00
6028;BME280;3042;43.194;27.646;2023-08-01T00:12:36;101053.81;;;27.02;100.00
6028;BME280;3042;43.194;27.646;2023-08-01T00:15:04;100838.97;;;25.59;100.00
6028;BME280;3042;43.194;27.646;2023-08-01T00:17:31;100858.22;;;25.70;100.00
6028;BME280;3042;43.194;27.646;2023-08-01T00:19:58;101052.41;;;26.84;100.00
6028;BME280;3042;43.194;27.646;2023-08-01T00:22:25;100968.25;;;26.44;100.00
6028;BME280;3042;43.194;27.646;2023-08-01T00:24:52;101035.47;;;26.91;100.00
6028;BME280;3042;43.194;27.646;2023-08-01T00:27:20;101030.06;;;26.95;100.00
6028;BME280;3042;43.194;27.646;2023-08-01T00:29:48;100794.06;;;25.54;100.00
6028;BME280;3042;43.194;27.646;2023-08-01T00:32:15;101046.25;;;26.80;100.00
6028;BME280;3042;43.194;27.646;2023-08-01T00:34:42;101043.44;;;26.91;100.00
6028;BME280;3042;43.194;27.646;2023-08-01T00:37:14;100655.63;;;24.42;100.00
6028;BME280;3042;43.194;27.646;2023-08-01T00:39:42;101001.22;;;26.79;100.00
6028;BME280;3042;43.194;27.646;2023-08-01T00:42:09;101028.47;;;26.85;100.00
6028;BME280;3042;43.194;27.646;2023-08-01T00:44:38;100846.09;;;25.57;100.00
6028;BME280;3042;43.194;27.646;2023-08-01T00:47:06;100946.91;;;25.99;100.00
6028;BME280;3042;43.194;27.646;2023-08-01T00:49:34;101025.06;;;26.24;100.00
6028;BME280;3042;43.194;27.646;2023-08-01T00:52:01;101033.25;;;26.66;100.00
6028;BME280;3042;43.194;27.646;2023-08-01T00:54:29;101024.44;;;26.64;100.00
6028;BME280;3042;43.194;27.646;2023-08-01T00:57:01;101016.44;;;26.67;100.00
6028;BME280;3042;43.194;27.646;2023-08-01T00:59:29;100940.28;;;26.26;100.00
6028;BME280;3042;43.194;27.646;2023-08-01T01:01:56;100947.22;;;26.31;100.00
6028;BME280;3042;43.194;27.646;2023-08-01T01:04:24;101013.50;;;26.83;100.00
6028;BME280;3042;43.194;27.646;2023-08-01T01:06:57;100933.97;;;26.35;100.00
6028;BME280;3042;43.194;27.646;2023-08-01T01:09:28;101013.63;;;26.77;100.00
6028;BME280;3042;43.194;27.646;2023-08-01T01:11:57;100868.47;;;25.92;100.00
6028;BME280;3042;43.194;27.646;2023-08-01T01:14:24;100936.91;;;26.16;100.00
6028;BME280;3042;43.194;27.646;2023-08-01T01:16:51;100954.63;;;26.13;100.00
6028;BME280;3042;43.194;27.646;2023-08-01T01:19:18;101022.63;;;26.66;100.00
6028;BME280;3042;43.194;27.646;2023-08-01T01:21:47;101023.66;;;26.59;100.00
6028;BME280;3042;43.194;27.646;2023-08-01T01:24:16;100824.00;;;24.97;100.00
6028;BME280;3042;43.194;27.646;2023-08-01T01:26:45;100924.69;;;25.50;100.00
6028;BME280;3042;43.194;27.646;2023-08-01T01:29:13;101007.53;;;26.17;100.00
6028;BME280;3042;43.194;27.646;2023-08-01T01:31:41;100688.47;;;24.19;100.00
6028;BME280;3042;43.194;27.646;2023-08-01T01:34:09;101000.28;;;26.28;100.00
6028;BME280;3042;43.194;27.646;2023-08-01T01:36:36;100670.63;;;24.40;100.00
6028;BME280;3042;43.194;27.646;2023-08-01T01:39:04;100612.09;;;24.07;100.00
6028;BME280;3042;43.194;27.646;2023-08-01T01:41:33;100920.53;;;25.93;100.00
6028;BME280;3042;43.194;27.646;2023-08-01T01:44:03;101009.88;;;26.37;100.00
6028;BME280;3042;43.194;27.646;2023-08-01T01:46:32;101010.38;;;26.05;100.00
6028;BME280;3042;43.194;27.646;2023-08-01T01:49:00;101006.06;;;25.98;100.00
6028;BME280;3042;43.194;27.646;2023-08-01T01:51:29;101005.94;;;26.05;100.00
6028;BME280;3042;43.194;27.646;2023-08-01T01:53:56;101007.72;;;26.05;100.00
6028;BME280;3042;43.194;27.646;2023-08-01T01:56:26;100941.03;;;25.78;100.00
6028;BME280;3042;43.194;27.646;2023-08-01T01:58:53;101006.72;;;26.14;100.00
6028;BME280;3042;43.194;27.646;2023-08-01T02:01:20;101004.00;;;26.18;100.00
6028;BME280;3042;43.194;27.646;2023-08-01T02:03:47;101011.09;;;26.16;100.00
6028;BME280;3042;43.194;27.646;2023-08-01T02:06:14;101009.38;;;26.12;100.00
6028;BME280;3042;43.194;27.646;2023-08-01T02:08:41;100960.44;;;25.77;100.00
6028;BME280;3042;43.194;27.646;2023-08-01T02:11:08;101009.31;;;26.15;100.00
6028;BME280;3042;43.194;27.646;2023-08-01T02:13:38;100864.91;;;25.38;100.00
6028;BME280;3042;43.194;27.646;2023-08-01T02:16:09;101004.00;;;26.18;100.00
6028;BME280;3042;43.194;27.646;2023-08-01T02:18:36;100628.31;;;23.76;100.00
6028;BME280;3042;43.194;27.646;2023-08-01T02:21:04;101011.09;;;26.18;100.00
6028;BME280;3042;43.194;27.646;2023-08-01T02:23:31;100969.19;;;25.84;100.00
6028;BME280;3042;43.194;27.646;2023-08-01T02:26:01;100999.06;;;25.94;100.00
6028;BME280;3042;43.194;27.646;2023-08-01T02:28:28;100964.19;;;25.64;100.00
6028;BME280;3042;43.194;27.646;2023-08-01T02:30:59;100591.31;;;22.93;100.00
6028;BME280;3042;43.194;27.646;2023-08-01T02:33:26;100947.25;;;25.09;100.00
6028;BME280;3042;43.194;27.646;2023-08-01T02:35:53;101030.22;;;25.75;100.00
6028;BME280;3042;43.194;27.646;2023-08-01T02:38:20;101029.19;;;25.86;100.00
6028;BME280;3042;43.194;27.646;2023-08-01T02:40:47;101013.34;;;25.82;100.00
6028;BME280;3042;43.194;27.646;2023-08-01T02:43:14;100783.25;;;24.47;100.00
6028;BME280;3042;43.194;27.646;2023-08-01T02:45:42;100949.38;;;25.49;100.00
6028;BME280;3042;43.194;27.646;2023-08-01T02:48:11;100790.22;;;24.53;100.00
6028;BME280;3042;43.194;27.646;2023-08-01T02:50:37;100872.50;;;24.93;100.00
6028;BME280;3042;43.194;27.646;2023-08-01T02:53:05;100993.28;;;25.65;100.00
6028;BME280;3042;43.194;27.646;2023-08-01T02:55:32;100994.19;;;25.63;100.00
6028;BME280;3042;43.194;27.646;2023-08-01T02:57:59;100933.06;;;25.18;100.00
6028;BME280;3042;43.194;27.646;2023-08-01T03:00:26;101039.78;;;25.86;100.00
6028;BME280;3042;43.194;27.646;2023-08-01T03:02:53;100908.53;;;25.03;100.00
6028;BME280;3042;43.194;27.646;2023-08-01T03:05:21;100988.94;;;25.60;100.00
6028;BME280;3042;43.194;27.646;2023-08-01T03:07:48;101032.91;;;25.73;100.00
6028;BME280;3042;43.194;27.646;2023-08-01T03:10:15;101024.94;;;25.73;100.00
6028;BME280;3042;43.194;27.646;2023-08-01T03:16:25;101046.78;;;25.90;100.00
6028;BME280;3042;43.194;27.646;2023-08-01T03:18:52;100723.09;;;23.95;100.00
6028;BME280;3042;43.194;27.646;2023-08-01T03:21:28;101052.91;;;25.94;100.00
6028;BME280;3042;43.194;27.646;2023-08-01T03:23:55;100929.50;;;25.19;100.00
6028;BME280;3042;43.194;27.646;2023-08-01T03:26:22;100738.72;;;24.13;100.00
6028;BME280;3042;43.194;27.646;2023-08-01T03:28:49;101048.38;;;26.04;100.00
6028;BME280;3042;43.194;27.646;2023-08-01T03:31:18;101055.34;;;26.08;100.00
6028;BME280;3042;43.194;27.646;2023-08-01T03:33:45;101053.63;;;26.07;100.00
6028;BME280;3042;43.194;27.646;2023-08-01T03:36:12;101049.19;;;26.09;100.00
6028;BME280;3042;43.194;27.646;2023-08-01T03:38:42;101051.63;;;26.21;100.00
6028;BME280;3042;43.194;27.646;2023-08-01T03:41:09;101049.78;;;26.26;100.00
6028;BME280;3042;43.194;27.646;2023-08-01T03:43:36;101058.53;;;26.31;100.00
6028;BME280;3042;43.194;27.646;2023-08-01T03:46:03;100920.19;;;25.57;100.00
6028;BME280;3042;43.194;27.646;2023-08-01T03:48:30;101056.69;;;26.37;100.00
6028;BME280;3042;43.194;27.646;2023-08-01T03:50:57;100916.63;;;25.58;100.00
6028;BME280;3042;43.194;27.646;2023-08-01T03:53:24;101061.94;;;26.40;100.00
6028;BME280;3042;43.194;27.646;2023-08-01T03:55:54;100924.44;;;25.65;100.00
6028;BME280;3042;43.194;27.646;2023-08-01T03:58:21;101037.25;;;26.38;100.00
6028;BME280;3042;43.194;27.646;2023-08-01T04:00:48;101066.75;;;26.70;100.00
6028;BME280;3042;43.194;27.646;2023-08-01T04:03:15;101061.41;;;26.73;100.00
6028;BME280;3042;43.194;27.646;2023-08-01T04:05:42;100952.81;;;26.16;100.00
6028;BME280;3042;43.194;27.646;2023-08-01T04:08:09;101056.47;;;27.02;100.00
6028;BME280;3042;43.194;27.646;2023-08-01T04:10:36;101055.22;;;27.23;100.00
6028;BME280;3042;43.194;27.646;2023-08-01T04:13:04;100973.13;;;26.68;100.00
6028;BME280;3042;43.194;27.646;2023-08-01T04:15:31;101057.06;;;27.17;100.00
6028;BME280;3042;43.194;27.646;2023-08-01T04:17:58;101064.09;;;27.22;100.00
6028;BME280;3042;43.194;27.646;2023-08-01T04:20:25;101059.31;;;27.39;100.00
6028;BME280;3042;43.194;27.646;2023-08-01T04:22:52;101053.72;;;27.53;100.00
6028;BME280;3042;43.194;27.646;2023-08-01T04:25:19;101053.81;;;27.48;100.00
6028;BME280;3042;43.194;27.646;2023-08-01T04:27:46;100917.91;;;26.89;100.00
6028;BME280;3042;43.194;27.646;2023-08-01T04:30:14;101048.25;;;28.03;100.00
6028;BME280;3042;43.194;27.646;2023-08-01T04:32:41;101044.47;;;28.13;100.00
6028;BME280;3042;43.194;27.646;2023-08-01T04:35:08;101044.31;;;28.19;100.00
6028;BME280;3042;43.194;27.646;2023-08-01T04:37:35;101047.22;;;28.46;100.00
6028;BME280;3042;43.194;27.646;2023-08-01T04:40:02;101052.41;;;28.52;100.00
6028;BME280;3042;43.194;27.646;2023-08-01T04:42:30;101039.06;;;28.88;100.00
6028;BME280;3042;43.194;27.646;2023-08-01T04:44:57;100926.09;;;28.34;100.00
6028;BME280;3042;43.194;27.646;2023-08-01T04:47:26;101043.41;;;28.92;100.00
6028;BME280;3042;43.194;27.646;2023-08-01T04:49:53;100862.94;;;28.09;100.00
6028;BME280;3042;43.194;27.646;2023-08-01T04:52:19;101030.00;;;29.57;100.00
6028;BME280;3042;43.194;27.646;2023-08-01T04:54:46;101036.06;;;29.92;100.00
6028;BME280;3042;43.194;27.646;2023-08-01T04:57:13;101036.94;;;30.21;100.00
6028;BME280;3042;43.194;27.646;2023-08-01T04:59:40;101036.81;;;30.52;100.00
6028;BME280;3042;43.194;27.646;2023-08-01T05:02:07;101037.53;;;30.82;100.00
6028;BME280;3042;43.194;27.646;2023-08-01T05:04:36;101041.44;;;30.99;100.00
6028;BME280;3042;43.194;27.646;2023-08-01T05:07:04;101038.41;;;31.09;100.00
6028;BME280;3042;43.194;27.646;2023-08-01T05:09:32;101033.00;;;31.34;100.00
6028;BME280;3042;43.194;27.646;2023-08-01T05:11:59;100988.53;;;31.33;100.00
6028;BME280;3042;43.194;27.646;2023-08-01T05:14:26;101033.97;;;31.57;100.00
6028;BME280;3042;43.194;27.646;2023-08-01T05:16:52;101028.81;;;31.74;100.00
6028;BME280;3042;43.194;27.646;2023-08-01T05:19:19;101036.03;;;31.96;100.00
6028;BME280;3042;43.194;27.646;2023-08-01T05:21:48;101038.03;;;32.13;100.00
6028;BME280;3042;43.194;27.646;2023-08-01T05:24:15;101040.28;;;32.44;100.00
6028;BME280;3042;43.194;27.646;2023-08-01T05:26:42;100955.56;;;32.02;100.00
6028;BME280;3042;43.194;27.646;2023-08-01T05:29:09;101044.84;;;32.64;100.00
6028;BME280;3042;43.194;27.646;2023-08-01T05:31:36;101041.00;;;32.90;100.00
6028;BME280;3042;43.194;27.646;2023-08-01T05:34:03;101015.69;;;32.97;100.00
6028;BME280;3042;43.194;27.646;2023-08-01T05:36:30;101044.28;;;33.36;100.00
6028;BME280;3042;43.194;27.646;2023-08-01T05:38:58;101034.19;;;33.62;100.00
6028;BME280;3042;43.194;27.646;2023-08-01T05:41:25;101036.75;;;33.84;100.00
6028;BME280;3042;43.194;27.646;2023-08-01T05:43:52;101046.63;;;34.01;100.00
6028;BME280;3042;43.194;27.646;2023-08-01T05:46:21;101035.50;;;34.10;100.00
6028;BME280;3042;43.194;27.646;2023-08-01T05:48:48;101031.41;;;34.20;100.00
6028;BME280;3042;43.194;27.646;2023-08-01T05:51:15;101016.25;;;34.37;100.00
6028;BME280;3042;43.194;27.646;2023-08-01T05:53:42;101017.69;;;34.44;100.00
6028;BME280;3042;43.194;27.646;2023-08-01T05:56:11;101013.41;;;34.57;100.00
6028;BME280;3042;43.194;27.646;2023-08-01T05:58:38;101018.66;;;34.60;100.00
6028;BME280;3042;43.194;27.646;2023-08-01T06:01:05;101018.34;;;34.66;100.00
6028;BME280;3042;43.194;27.646;2023-08-01T06:03:32;100886.69;;;34.17;100.00
6028;BME280;3042;43.194;27.646;2023-08-01T06:05:59;100962.09;;;34.81;100.00
6028;BME280;3042;43.194;27.646;2023-08-01T06:08:26;101011.47;;;35.29;100.00
6028;BME280;3042;43.194;27.646;2023-08-01T06:10:53;101015.59;;;35.19;100.00
6028;BME280;3042;43.194;27.646;2023-08-01T06:13:21;100950.50;;;35.14;100.00
6028;BME280;3042;43.194;27.646;2023-08-01T06:15:48;101017.84;;;35.11;100.00
6028;BME280;3042;43.194;27.646;2023-08-01T06:18:15;101015.94;;;35.13;100.00
6028;BME280;3042;43.194;27.646;2023-08-01T06:20:42;100928.31;;;34.07;100.00
6028;BME280;3042;43.194;27.646;2023-08-01T06:23:09;101005.31;;;35.09;100.00
6028;BME280;3042;43.194;27.646;2023-08-01T06:25:36;100994.47;;;35.60;100.00
6028;BME280;3042;43.194;27.646;2023-08-01T06:28:03;100991.81;;;35.92;100.00
6028;BME280;3042;43.194;27.646;2023-08-01T06:30:32;100947.88;;;35.91;100.00
6028;BME280;3042;43.194;27.646;2023-08-01T06:32:59;100964.00;;;36.38;100.00
6028;BME280;3042;43.194;27.646;2023-08-01T06:35:26;100985.25;;;36.72;100.00
6028;BME280;3042;43.194;27.646;2023-08-01T06:37:53;100971.00;;;36.99;100.00
6028;BME280;3042;43.194;27.646;2023-08-01T06:40:20;100975.34;;;37.02;100.00
6028;BME280;3042;43.194;27.646;2023-08-01T06:42:48;100971.69;;;37.31;100.00
6028;BME280;3042;43.194;27.646;2023-08-01T06:45:15;100965.44;;;37.31;100.00
6028;BME280;3042;43.194;27.646;2023-08-01T06:47:43;100957.38;;;37.16;100.00
6028;BME280;3042;43.194;27.646;2023-08-01T06:50:10;100959.56;;;37.80;100.00
6028;BME280;3042;43.194;27.646;2023-08-01T06:52:37;100957.97;;;38.17;100.00
6028;BME280;3042;43.194;27.646;2023-08-01T06:55:05;100937.00;;;38.08;100.00
6028;BME280;3042;43.194;27.646;2023-08-01T06:57:32;100966.09;;;37.76;100.00
6028;BME280;3042;43.194;27.646;2023-08-01T06:59:59;100966.84;;;37.65;100.00
6028;BME280;3042;43.194;27.646;2023-08-01T07:02:26;100970.75;;;37.18;100.00
6028;BME280;3042;43.194;27.646;2023-08-01T07:05:05;100877.84;;;36.52;100.00
6028;BME280;3042;43.194;27.646;2023-08-01T07:07:32;100982.00;;;36.96;100.00
6028;BME280;3042;43.194;27.646;2023-08-01T07:09:59;100992.75;;;36.67;100.00
6028;BME280;3042;43.194;27.646;2023-08-01T07:12:26;101007.78;;;36.11;100.00
6028;BME280;3042;43.194;27.646;2023-08-01T07:14:53;100998.44;;;36.01;100.00
6028;BME280;3042;43.194;27.646;2023-08-01T07:17:20;100862.00;;;35.11;100.00
6028;BME280;3042;43.194;27.646;2023-08-01T07:19:47;100859.97;;;34.98;100.00
6028;BME280;3042;43.194;27.646;2023-08-01T07:22:16;100928.03;;;35.46;100.00
6028;BME280;3042;43.194;27.646;2023-08-01T07:24:43;100986.06;;;35.50;100.00
6028;BME280;3042;43.194;27.646;2023-08-01T07:27:09;101006.78;;;35.33;100.00
6028;BME280;3042;43.194;27.646;2023-08-01T07:29:37;101007.09;;;34.93;100.00
6028;BME280;3042;43.194;27.646;2023-08-01T07:32:05;101005.03;;;35.16;100.00
6028;BME280;3042;43.194;27.646;2023-08-01T07:34:33;100958.47;;;34.82;100.00
6028;BME280;3042;43.194;27.646;2023-08-01T07:36:59;101005.00;;;34.65;100.00
6028;BME280;3042;43.194;27.646;2023-08-01T07:39:28;100969.22;;;34.47;100.00
6028;BME280;3042;43.194;27.646;2023-08-01T07:41:55;101007.13;;;34.76;100.00
6028;BME280;3042;43.194;27.646;2023-08-01T07:44:23;100995.53;;;34.75;100.00
6028;BME280;3042;43.194;27.646;2023-08-01T07:46:49;100972.88;;;34.63;100.00
6028;BME280;3042;43.194;27.646;2023-08-01T07:49:16;100853.31;;;33.88;100.00
6028;BME280;3042;43.194;27.646;2023-08-01T07:51:43;101011.22;;;34.31;100.00
6028;BME280;3042;43.194;27.646;2023-08-01T07:54:10;101000.88;;;34.40;100.00
6028;BME280;3042;43.194;27.646;2023-08-01T07:56:39;100999.38;;;34.52;100.00
6028;BME280;3042;43.194;27.646;2023-08-01T07:59:06;101003.34;;;34.45;100.00
6028;BME280;3042;43.194;27.646;2023-08-01T08:01:33;100980.44;;;34.73;100.00
6028;BME280;3042;43.194;27.646;2023-08-01T08:04:00;100949.66;;;34.62;100.00
6028;BME280;3042;43.194;27.646;2023-08-01T08:06:27;100942.75;;;34.57;100.00
6028;BME280;3042;43.194;27.646;2023-08-01T08:08:54;100986.34;;;34.79;100.00
6028;BME280;3042;43.194;27.646;2023-08-01T08:11:21;100981.00;;;34.95;100.00
6028;BME280;3042;43.194;27.646;2023-08-01T08:13:50;100959.09;;;34.87;100.00
6028;BME280;3042;43.194;27.646;2023-08-01T08:16:17;100956.94;;;35.27;100.00
6028;BME280;3042;43.194;27.646;2023-08-01T08:18:44;100954.16;;;34.95;100.00
6028;BME280;3042;43.194;27.646;2023-08-01T08:21:11;100965.16;;;35.24;100.00
6028;BME280;3042;43.194;27.646;2023-08-01T08:23:38;100954.75;;;35.49;100.00
6028;BME280;3042;43.194;27.646;2023-08-01T08:26:05;100838.22;;;34.87;100.00
6028;BME280;3042;43.194;27.646;2023-08-01T08:28:33;100952.00;;;35.67;100.00
6028;BME280;3042;43.194;27.646;2023-08-01T08:31:01;100952.34;;;35.77;100.00
6028;BME280;3042;43.194;27.646;2023-08-01T08:33:29;100934.66;;;35.57;100.00
6028;BME280;3042;43.194;27.646;2023-08-01T08:35:56;100955.91;;;35.45;100.00
6028;BME280;3042;43.194;27.646;2023-08-01T08:38:23;100927.84;;;35.49;100.00
6028;BME280;3042;43.194;27.646;2023-08-01T08:40:59;100953.88;;;35.49;100.00
6028;BME280;3042;43.194;27.646;2023-08-01T08:43:30;100946.44;;;35.70;100.00
6028;BME280;3042;43.194;27.646;2023-08-01T08:46:02;100939.34;;;35.69;100.00
6028;BME280;3042;43.194;27.646;2023-08-01T08:48:30;100966.03;;;35.40;100.00
6028;BME280;3042;43.194;27.646;2023-08-01T08:50:59;100948.94;;;35.57;100.00
6028;BME280;3042;43.194;27.646;2023-08-01T08:53:31;100948.63;;;35.47;100.00
6028;BME280;3042;43.194;27.646;2023-08-01T08:55:59;100959.97;;;35.53;100.00
6028;BME280;3042;43.194;27.646;2023-08-01T08:58:27;100926.31;;;35.45;100.00
6028;BME280;3042;43.194;27.646;2023-08-01T09:00:55;100951.91;;;35.53;100.00
6028;BME280;3042;43.194;27.646;2023-08-01T09:03:31;100949.03;;;35.56;100.00
6028;BME280;3042;43.194;27.646;2023-08-01T09:06:06;100928.41;;;35.72;100.00
6028;BME280;3042;43.194;27.646;2023-08-01T09:08:35;100925.94;;;35.83;100.00
6028;BME280;3042;43.194;27.646;2023-08-01T09:11:03;100915.66;;;36.06;100.00
6028;BME280;3042;43.194;27.646;2023-08-01T09:13:30;100920.25;;;36.04;100.00
6028;BME280;3042;43.194;27.646;2023-08-01T09:15:57;100913.22;;;35.39;100.00
6028;BME280;3042;43.194;27.646;2023-08-01T09:18:25;100932.59;;;35.62;100.00
6028;BME280;3042;43.194;27.646;2023-08-01T09:20:53;100927.03;;;35.65;100.00
6028;BME280;3042;43.194;27.646;2023-08-01T09:23:24;100834.66;;;35.02;100.00
6028;BME280;3042;43.194;27.646;2023-08-01T09:25:53;100920.50;;;35.69;100.00
6028;BME280;3042;43.194;27.646;2023-08-01T09:28:21;100915.47;;;35.79;100.00
6028;BME280;3042;43.194;27.646;2023-08-01T09:30:49;100870.91;;;35.89;100.00
6028;BME280;3042;43.194;27.646;2023-08-01T09:33:17;100899.31;;;36.09;100.00
6028;BME280;3042;43.194;27.646;2023-08-01T09:35:46;100890.88;;;36.15;100.00
6028;BME280;3042;43.194;27.646;2023-08-01T09:38:14;100863.81;;;35.88;100.00
6028;BME280;3042;43.194;27.646;2023-08-01T09:40:42;100894.69;;;35.97;100.00
6028;BME280;3042;43.194;27.646;2023-08-01T09:43:10;100893.84;;;36.10;100.00
6028;BME280;3042;43.194;27.646;2023-08-01T09:45:50;100876.25;;;36.05;100.00
6028;BME280;3042;43.194;27.646;2023-08-01T09:48:25;100885.16;;;36.35;100.00
6028;BME280;3042;43.194;27.646;2023-08-01T09:51:06;100759.94;;;35.71;100.00
6028;BME280;3042;43.194;27.646;2023-08-01T09:53:34;100883.59;;;36.31;100.00
6028;BME280;3042;43.194;27.646;2023-08-01T09:56:02;100766.47;;;35.81;100.00
6028;BME280;3042;43.194;27.646;2023-08-01T09:58:32;100869.78;;;36.52;100.00
6028;BME280;3042;43.194;27.646;2023-08-01T10:00:59;100879.59;;;36.39;100.00
6028;BME280;3042;43.194;27.646;2023-08-01T10:03:28;100861.81;;;36.50;100.00
6028;BME280;3042;43.194;27.646;2023-08-01T10:05:58;100863.28;;;36.70;100.00
6028;BME280;3042;43.194;27.646;2023-08-01T10:08:25;100861.72;;;36.66;100.00
6028;BME280;3042;43.194;27.646;2023-08-01T10:10:53;100866.72;;;36.72;100.00
6028;BME280;3042;43.194;27.646;2023-08-01T10:13:23;100856.50;;;36.92;100.00
6028;BME280;3042;43.194;27.646;2023-08-01T10:15:51;100842.34;;;37.17;100.00
6028;BME280;3042;43.194;27.646;2023-08-01T10:18:18;100840.88;;;37.26;98.70
6028;BME280;3042;43.194;27.646;2023-08-01T10:20:46;100836.25;;;37.28;97.88
6028;BME280;3042;43.194;27.646;2023-08-01T10:23:15;100840.66;;;37.29;97.59
6028;BME280;3042;43.194;27.646;2023-08-01T10:25:43;100820.38;;;37.09;100.00
6028;BME280;3042;43.194;27.646;2023-08-01T10:28:10;100850.94;;;36.95;98.35
6028;BME280;3042;43.194;27.646;2023-08-01T10:30:38;100838.97;;;37.13;97.45
6028;BME280;3042;43.194;27.646;2023-08-01T10:33:05;100836.63;;;37.22;96.18
6028;BME280;3042;43.194;27.646;2023-08-01T10:35:38;100834.09;;;37.33;95.02
6028;BME280;3042;43.194;27.646;2023-08-01T10:51:36;100815.53;;;37.28;95.49
6028;BME280;3042;43.194;27.646;2023-08-01T10:54:03;100810.78;;;37.32;94.60
6028;BME280;3042;43.194;27.646;2023-08-01T10:56:31;100764.47;;;37.12;92.88
6028;BME280;3042;43.194;27.646;2023-08-01T10:58:58;100737.34;;;37.01;91.40
6028;BME280;3042;43.194;27.646;2023-08-01T11:01:25;100819.63;;;36.92;91.60
6028;BME280;3042;43.194;27.646;2023-08-01T11:03:53;100826.16;;;36.61;92.94
6028;BME280;3042;43.194;27.646;2023-08-01T11:06:20;100806.97;;;36.80;91.18
6028;BME280;3042;43.194;27.646;2023-08-01T11:08:49;100754.28;;;36.47;89.71
6028;BME280;3042;43.194;27.646;2023-08-01T11:11:16;100798.97;;;36.93;89.89
6028;BME280;3042;43.194;27.646;2023-08-01T11:13:50;100724.50;;;36.65;89.38
6028;BME280;3042;43.194;27.646;2023-08-01T11:16:18;100776.31;;;37.50;89.93
6028;BME280;3042;43.194;27.646;2023-08-01T11:18:45;100755.34;;;37.68;88.44
6028;BME280;3042;43.194;27.646;2023-08-01T11:21:12;100769.84;;;37.52;86.79
6028;BME280;3042;43.194;27.646;2023-08-01T11:23:40;100760.19;;;37.63;87.53
6028;BME280;3042;43.194;27.646;2023-08-01T11:26:08;100781.88;;;37.34;86.40
6028;BME280;3042;43.194;27.646;2023-08-01T11:28:35;100771.47;;;37.42;86.15
6028;BME280;3042;43.194;27.646;2023-08-01T11:31:10;100740.28;;;37.38;84.86
6028;BME280;3042;43.194;27.646;2023-08-01T11:33:37;100764.84;;;37.61;85.40
6028;BME280;3042;43.194;27.646;2023-08-01T11:36:05;100744.03;;;37.75;85.65
6028;BME280;3042;43.194;27.646;2023-08-01T11:38:33;100677.50;;;37.36;84.29
6028;BME280;3042;43.194;27.646;2023-08-01T11:41:02;100742.06;;;37.90;85.01
6028;BME280;3042;43.194;27.646;2023-08-01T11:43:39;100740.34;;;37.89;83.77
6028;BME280;3042;43.194;27.646;2023-08-01T11:46:06;100744.66;;;37.79;84.59
6028;BME280;3042;43.194;27.646;2023-08-01T11:48:34;100715.28;;;37.49;84.49
6028;BME280;3042;43.194;27.646;2023-08-01T11:51:02;100751.34;;;37.61;83.00
6028;BME280;3042;43.194;27.646;2023-08-01T11:53:30;100729.97;;;37.83;83.83
6028;BME280;3042;43.194;27.646;2023-08-01T11:56:03;100725.53;;;37.95;82.84
6028;BME280;3042;43.194;27.646;2023-08-01T11:58:31;100686.16;;;37.92;82.42
6028;BME280;3042;43.194;27.646;2023-08-01T12:01:04;100718.53;;;38.18;81.73
6028;BME280;3042;43.194;27.646;2023-08-01T12:03:32;100715.06;;;38.16;80.60
6028;BME280;3042;43.194;27.646;2023-08-01T12:06:08;100713.31;;;38.28;80.77
6028;BME280;3042;43.194;27.646;2023-08-01T12:08:38;100707.50;;;38.34;79.44
6028;BME280;3042;43.194;27.646;2023-08-01T12:11:05;100706.91;;;38.41;79.89
6028;BME280;3042;43.194;27.646;2023-08-01T12:13:32;100694.34;;;38.66;79.34
6028;BME280;3042;43.194;27.646;2023-08-01T12:15:59;100689.22;;;38.74;78.16
6028;BME280;3042;43.194;27.646;2023-08-01T12:18:28;100685.75;;;38.72;78.43
6028;BME280;3042;43.194;27.646;2023-08-01T12:20:55;100688.63;;;38.58;77.28
6028;BME280;3042;43.194;27.646;2023-08-01T12:23:23;100611.41;;;38.55;78.20
6028;BME280;3042;43.194;27.646;2023-08-01T12:25:50;100690.38;;;38.59;76.68
6028;BME280;3042;43.194;27.646;2023-08-01T12:28:16;100679.09;;;38.65;78.46
6028;BME280;3042;43.194;27.646;2023-08-01T12:30:43;100686.63;;;38.49;76.88
6028;BME280;3042;43.194;27.646;2023-08-01T12:33:11;100686.91;;;38.57;78.11
6028;BME280;3042;43.194;27.646;2023-08-01T12:35:40;100683.72;;;38.52;76.65
6028;BME280;3042;43.194;27.646;2023-08-01T12:38:08;100668.53;;;38.62;76.32
6028;BME280;3042;43.194;27.646;2023-08-01T12:40:35;100661.44;;;38.72;76.05
6028;BME280;3042;43.194;27.646;2023-08-01T12:43:02;100656.28;;;38.93;75.21
6028;BME280;3042;43.194;27.646;2023-08-01T12:45:29;100661.94;;;38.77;77.48
6028;BME280;3042;43.194;27.646;2023-08-01T12:47:56;100680.25;;;38.37;85.02
6028;BME280;3042;43.194;27.646;2023-08-01T12:50:23;100687.41;;;38.25;85.91
6028;BME280;3042;43.194;27.646;2023-08-01T12:52:51;100677.25;;;38.29;87.68
6028;BME280;3042;43.194;27.646;2023-08-01T12:55:19;100678.13;;;38.29;95.60
6028;BME280;3042;43.194;27.646;2023-08-01T12:57:47;100665.22;;;38.09;97.19
6028;BME280;3042;43.194;27.646;2023-08-01T13:00:15;100703.06;;;37.43;98.74
6028;BME280;3042;43.194;27.646;2023-08-01T13:02:42;100708.84;;;37.11;100.00
6028;BME280;3042;43.194;27.646;2023-08-01T13:05:09;100703.56;;;37.23;100.00
6028;BME280;3042;43.194;27.646;2023-08-01T13:07:36;100702.94;;;37.19;98.55
6028;BME280;3042;43.194;27.646;2023-08-01T13:10:06;100714.78;;;36.89;100.00
6028;BME280;3042;43.194;27.646;2023-08-01T13:12:33;100691.84;;;37.24;100.00